createdAt,value
2019-02-21T00:01:08.545Z,6.40
2019-02-21T00:04:25.572Z,6.40
2019-02-21T00:07:42.384Z,6.30
2019-02-21T00:10:59.645Z,6.30
2019-02-21T00:14:16.320Z,6.30
2019-02-21T00:17:32.811Z,6.30
2019-02-21T00:20:49.695Z,6.20
2019-02-21T00:24:06.715Z,6.20
2019-02-21T00:27:23.579Z,6.10
2019-02-21T00:30:39.972Z,6.10
2019-02-21T00:33:56.792Z,6.10
2019-02-21T00:37:13.946Z,6.10
2019-02-21T00:40:31.669Z,6.10
2019-02-21T00:43:48.205Z,6.20
2019-02-21T00:47:05.217Z,6.10
2019-02-21T00:50:22.404Z,6.10
2019-02-21T00:53:39.132Z,6.10
2019-02-21T00:56:56.315Z,6.10
2019-02-21T01:00:13.426Z,6.10
2019-02-21T01:03:30.358Z,6.00
2019-02-21T01:06:47.153Z,6.00
2019-02-21T01:10:03.717Z,6.00
2019-02-21T01:16:45.457Z,5.90
2019-02-21T01:20:09.693Z,5.90
2019-02-21T01:23:26.871Z,5.80
2019-02-21T01:26:43.620Z,5.80
2019-02-21T01:29:48.741Z,5.80
2019-02-21T01:33:13.004Z,5.80
2019-02-21T01:36:29.790Z,5.70
2019-02-21T01:39:46.676Z,5.70
2019-02-21T01:43:03.156Z,5.70
2019-02-21T01:46:19.685Z,5.60
2019-02-21T01:49:36.721Z,5.60
2019-02-21T01:52:53.658Z,5.60
2019-02-21T01:56:10.719Z,5.60
2019-02-21T01:59:27.220Z,5.70
2019-02-21T02:02:44.001Z,5.70
2019-02-21T02:06:01.464Z,5.70
2019-02-21T02:09:18.497Z,5.70
2019-02-21T02:12:35.339Z,5.70
2019-02-21T02:15:52.656Z,5.60
2019-02-21T02:19:09.477Z,5.60
2019-02-21T02:22:26.909Z,5.60
2019-02-21T02:25:44.208Z,5.60
2019-02-21T02:28:49.347Z,5.60
2019-02-21T02:32:13.605Z,5.60
2019-02-21T02:35:30.938Z,5.60
2019-02-21T02:38:48.244Z,5.50
2019-02-21T02:42:03.511Z,5.50
2019-02-21T02:45:19.988Z,5.50
2019-02-21T02:48:36.760Z,5.50
2019-02-21T02:51:53.548Z,5.60
2019-02-21T02:55:10.357Z,5.60
2019-02-21T02:58:27.679Z,5.60
2019-02-21T03:01:44.391Z,5.50
2019-02-21T03:05:01.253Z,5.40
2019-02-21T03:08:18.374Z,5.40
2019-02-21T03:11:35.282Z,5.30
2019-02-21T03:14:52.157Z,5.30
2019-02-21T03:18:09.020Z,5.20
2019-02-21T03:21:25.463Z,5.20
2019-02-21T03:24:42.329Z,5.10
2019-02-21T03:28:00.803Z,5.10
2019-02-21T03:31:18.151Z,5.10
2019-02-21T03:34:35.423Z,5.00
2019-02-21T03:37:52.712Z,5.00
2019-02-21T03:41:09.976Z,5.00
2019-02-21T03:44:27.518Z,5.00
2019-02-21T03:47:44.622Z,5.00
2019-02-21T03:51:01.615Z,4.90
2019-02-21T03:54:18.441Z,4.90
2019-02-21T03:57:35.366Z,4.90
2019-02-21T04:00:52.802Z,4.90
2019-02-21T04:04:10.211Z,5.00
2019-02-21T04:07:27.138Z,5.00
2019-02-21T04:10:43.908Z,5.00
2019-02-21T04:14:00.618Z,5.00
2019-02-21T04:17:17.607Z,5.00
2019-02-21T04:20:34.172Z,5.00
2019-02-21T04:23:51.264Z,4.90
2019-02-21T04:27:08.471Z,4.80
2019-02-21T04:30:23.976Z,4.80
2019-02-21T04:33:48.152Z,4.70
2019-02-21T04:37:05.083Z,4.70
2019-02-21T04:40:22.264Z,4.70
2019-02-21T04:43:39.460Z,4.70
2019-02-21T04:46:56.657Z,4.70
2019-02-21T04:50:13.719Z,4.70
2019-02-21T04:53:30.668Z,4.70
2019-02-21T04:56:47.290Z,4.70
2019-02-21T05:00:03.840Z,4.70
2019-02-21T05:03:20.539Z,4.70
2019-02-21T05:06:36.984Z,4.70
2019-02-21T05:09:58.106Z,4.70
2019-02-21T05:13:10.625Z,4.70
2019-02-21T05:16:34.876Z,4.70
2019-02-21T05:19:50.164Z,4.70
2019-02-21T05:23:06.689Z,4.70
2019-02-21T05:26:29.520Z,4.70
2019-02-21T05:29:46.575Z,4.70
2019-02-21T05:33:12.027Z,4.70
2019-02-21T05:36:48.010Z,4.70
2019-02-21T05:44:04.747Z,4.60
2019-02-21T05:47:43.371Z,4.50
2019-02-21T05:51:19.625Z,4.60
2019-02-21T05:54:55.587Z,4.50
2019-02-21T05:58:22.665Z,4.50
2019-02-21T06:01:58.913Z,4.50
2019-02-21T06:05:34.938Z,4.50
2019-02-21T06:09:10.548Z,4.50
2019-02-21T06:12:34.648Z,4.50
2019-02-21T06:15:58.649Z,4.40
2019-02-21T06:19:44.726Z,4.40
2019-02-21T06:23:10.655Z,4.40
2019-02-21T06:26:35.870Z,4.40
2019-02-21T06:29:57.594Z,4.40
2019-02-21T06:33:16.034Z,4.40
2019-02-21T06:36:32.666Z,4.50
2019-02-21T06:39:49.864Z,4.50
2019-02-21T06:43:06.385Z,4.70
2019-02-21T06:46:21.637Z,4.90
2019-02-21T06:49:45.792Z,5.00
2019-02-21T06:53:01.016Z,5.20
2019-02-21T06:56:25.255Z,5.30
2019-02-21T06:59:45.272Z,5.50
2019-02-21T07:03:00.719Z,5.60
2019-02-21T07:06:19.141Z,5.60
2019-02-21T07:09:34.477Z,5.70
2019-02-21T07:12:58.639Z,5.80
2019-02-21T07:16:15.256Z,5.90
2019-02-21T07:19:31.762Z,6.00
2019-02-21T07:22:48.474Z,6.00
2019-02-21T07:26:07.920Z,6.10
2019-02-21T07:29:24.865Z,6.20
2019-02-21T07:32:41.636Z,6.20
2019-02-21T07:35:46.675Z,6.30
2019-02-21T07:39:16.507Z,6.30
2019-02-21T07:42:23.766Z,6.40
2019-02-21T07:45:40.972Z,6.40
2019-02-21T07:48:57.403Z,6.40
2019-02-21T07:52:14.924Z,6.50
2019-02-21T07:55:32.358Z,6.50
2019-02-21T07:58:48.989Z,6.60
2019-02-21T08:02:06.148Z,6.60
2019-02-21T08:05:23.782Z,6.60
2019-02-21T08:08:40.815Z,6.70
2019-02-21T08:11:57.589Z,6.70
2019-02-21T08:15:14.474Z,6.80
2019-02-21T08:18:31.696Z,6.90
2019-02-21T08:21:48.970Z,6.90
2019-02-21T08:25:05.607Z,7.00
2019-02-21T08:28:22.468Z,7.00
2019-02-21T08:31:39.782Z,7.00
2019-02-21T08:34:56.892Z,7.00
2019-02-21T08:38:13.624Z,7.10
2019-02-21T08:41:30.521Z,7.10
2019-02-21T08:44:47.355Z,7.10
2019-02-21T08:48:03.853Z,7.10
2019-02-21T08:51:20.910Z,7.10
2019-02-21T08:54:38.221Z,7.10
2019-02-21T08:57:55.481Z,7.20
2019-02-21T09:01:12.708Z,7.20
2019-02-21T09:04:29.314Z,7.20
2019-02-21T09:07:46.680Z,7.20
2019-02-21T09:11:04.167Z,7.20
2019-02-21T09:14:21.657Z,7.30
2019-02-21T09:17:38.204Z,7.40
2019-02-21T09:20:55.045Z,7.60
2019-02-21T09:24:13.722Z,7.70
2019-02-21T09:27:30.803Z,7.80
2019-02-21T09:30:47.821Z,7.90
2019-02-21T09:34:04.474Z,8.00
2019-02-21T09:37:21.547Z,8.10
2019-02-21T09:40:38.123Z,8.30
2019-02-21T09:43:54.887Z,8.50
2019-02-21T09:47:11.615Z,8.60
2019-02-21T09:50:28.609Z,8.80
2019-02-21T09:53:45.420Z,9.00
2019-02-21T09:57:12.504Z,9.20
2019-02-21T10:00:21.379Z,9.50
2019-02-21T10:03:38.055Z,9.70
2019-02-21T10:06:54.763Z,9.90
2019-02-21T10:10:11.399Z,10.10
2019-02-21T10:13:28.700Z,10.30
2019-02-21T10:16:45.495Z,10.50
2019-02-21T10:20:04.095Z,10.70
2019-02-21T10:23:21.140Z,11.00
2019-02-21T10:26:37.683Z,11.40
2019-02-21T10:29:54.619Z,11.60
2019-02-21T10:33:12.119Z,11.80
2019-02-21T10:36:28.649Z,11.90
2019-02-21T10:39:44.009Z,12.10
2019-02-21T10:43:01.040Z,12.20
2019-02-21T10:46:17.752Z,12.30
2019-02-21T10:49:35.085Z,12.40
2019-02-21T10:52:51.754Z,12.40
2019-02-21T10:56:08.981Z,12.40
2019-02-21T10:59:26.188Z,12.40
2019-02-21T11:02:43.339Z,12.40
2019-02-21T11:06:00.239Z,12.60
2019-02-21T11:09:17.839Z,12.70
2019-02-21T11:12:34.489Z,12.80
2019-02-21T11:15:51.399Z,12.90
2019-02-21T11:19:08.360Z,12.90
2019-02-21T11:22:25.828Z,12.90
2019-02-21T11:25:43.160Z,13.00
2019-02-21T11:29:00.660Z,13.00
2019-02-21T11:32:17.769Z,13.20
2019-02-21T11:35:35.115Z,13.30
2019-02-21T11:38:51.680Z,13.30
2019-02-21T11:42:08.660Z,13.20
2019-02-21T11:45:25.585Z,13.10
2019-02-21T11:56:10.099Z,13.30
2019-02-21T11:59:26.826Z,13.10
2019-02-21T12:02:44.083Z,13.10
2019-02-21T12:06:01.319Z,13.20
2019-02-21T12:09:16.563Z,13.20
2019-02-21T12:12:40.718Z,13.20
2019-02-21T12:15:59.084Z,13.20
2019-02-21T12:19:16.383Z,13.20
2019-02-21T12:22:33.528Z,13.20
2019-02-21T12:25:50.555Z,13.10
2019-02-21T12:29:07.833Z,13.10
2019-02-21T12:32:24.784Z,13.00
2019-02-21T12:35:41.568Z,13.00
2019-02-21T12:38:58.327Z,12.90
2019-02-21T12:42:14.820Z,12.80
2019-02-21T12:45:31.487Z,12.80
2019-02-21T12:48:48.231Z,12.80
2019-02-21T12:52:04.952Z,12.80
2019-02-21T12:55:27.976Z,12.90
2019-02-21T12:58:40.674Z,12.90
2019-02-21T13:01:57.924Z,12.80
2019-02-21T13:05:14.885Z,12.80
2019-02-21T13:08:31.639Z,12.70
2019-02-21T13:11:48.300Z,12.70
2019-02-21T13:15:05.376Z,12.80
2019-02-21T13:18:22.350Z,12.80
2019-02-21T13:21:38.871Z,12.90
2019-02-21T13:24:55.824Z,12.80
2019-02-21T13:28:12.547Z,12.70
2019-02-21T13:31:29.289Z,12.60
2019-02-21T13:34:46.407Z,12.60
2019-02-21T13:38:03.295Z,12.50
2019-02-21T13:41:19.797Z,12.40
2019-02-21T13:44:36.677Z,12.30
2019-02-21T13:47:54.735Z,12.20
2019-02-21T13:51:11.659Z,12.30
2019-02-21T13:54:28.655Z,12.20
2019-02-21T13:57:45.504Z,12.20
2019-02-21T14:01:05.524Z,12.20
2019-02-21T14:04:22.884Z,12.20
2019-02-21T14:07:39.687Z,12.20
2019-02-21T14:10:56.459Z,12.20
2019-02-21T14:14:13.580Z,12.10
2019-02-21T14:17:30.686Z,12.10
2019-02-21T14:20:47.823Z,12.10
2019-02-21T14:24:04.973Z,12.10
2019-02-21T14:27:22.203Z,12.20
2019-02-21T14:30:38.900Z,12.30
2019-02-21T14:33:55.683Z,12.40
2019-02-21T14:37:12.484Z,12.30
2019-02-21T14:40:29.070Z,12.30
2019-02-21T14:43:46.328Z,12.30
2019-02-21T14:47:03.098Z,12.30
2019-02-21T14:50:19.708Z,12.30
2019-02-21T14:53:36.407Z,12.30
2019-02-21T14:56:53.275Z,12.20
2019-02-21T15:00:10.424Z,12.20
2019-02-21T15:03:27.560Z,12.20
2019-02-21T15:06:44.338Z,12.20
2019-02-21T15:10:00.956Z,12.30
2019-02-21T15:13:17.875Z,12.20
2019-02-21T15:16:35.175Z,12.20
2019-02-21T15:19:50.361Z,12.10
2019-02-21T15:23:14.527Z,12.00
2019-02-21T15:26:31.004Z,12.00
2019-02-21T15:29:47.708Z,11.90
2019-02-21T15:33:04.536Z,11.90
2019-02-21T15:36:21.328Z,11.90
2019-02-21T15:39:38.156Z,11.90
2019-02-21T15:42:55.344Z,11.80
2019-02-21T15:46:12.288Z,11.80
2019-02-21T15:49:28.848Z,11.80
2019-02-21T15:52:45.602Z,11.80
2019-02-21T15:56:02.591Z,11.70
2019-02-21T15:59:19.234Z,11.70
2019-02-21T16:02:35.819Z,11.60
2019-02-21T16:05:52.459Z,11.60
2019-02-21T16:09:16.161Z,11.50
2019-02-21T16:12:28.698Z,11.50
2019-02-21T16:15:46.216Z,11.50
2019-02-21T16:19:02.706Z,11.40
2019-02-21T16:22:19.492Z,11.40
2019-02-21T16:25:36.856Z,11.40
2019-02-21T16:28:41.961Z,11.30
2019-02-21T16:32:06.796Z,11.30
2019-02-21T16:35:23.292Z,11.20
2019-02-21T16:38:40.057Z,11.20
2019-02-21T16:41:56.708Z,11.10
2019-02-21T16:45:13.528Z,11.10
2019-02-21T16:48:30.332Z,11.10
2019-02-21T16:51:46.833Z,11.00
2019-02-21T16:55:03.526Z,10.90
2019-02-21T16:58:20.072Z,10.90
2019-02-21T17:01:37.166Z,10.80
2019-02-21T17:04:55.725Z,10.70
2019-02-21T17:08:12.197Z,10.70
2019-02-21T17:11:29.609Z,10.60
2019-02-21T17:14:46.499Z,10.60
2019-02-21T17:18:04.127Z,10.50
2019-02-21T17:21:21.240Z,10.50
2019-02-21T17:24:38.843Z,10.60
2019-02-21T17:27:55.627Z,10.60
2019-02-21T17:31:12.400Z,10.70
2019-02-21T17:34:29.347Z,10.80
2019-02-21T17:37:46.896Z,10.80
2019-02-21T17:41:04.542Z,10.90
2019-02-21T17:44:22.868Z,10.90
2019-02-21T17:47:39.763Z,10.90
2019-02-21T17:50:56.864Z,10.90
2019-02-21T17:54:14.241Z,11.00
2019-02-21T17:57:30.707Z,11.00
2019-02-21T18:00:47.659Z,11.10
2019-02-21T18:04:05.016Z,11.10
2019-02-21T18:07:21.696Z,11.10
2019-02-21T18:10:38.755Z,11.10
2019-02-21T18:13:55.909Z,11.10
2019-02-21T18:17:13.153Z,11.10
2019-02-21T18:20:29.899Z,11.10
2019-02-21T18:23:46.461Z,11.10
2019-02-21T18:27:03.603Z,11.20
2019-02-21T18:30:19.172Z,11.20
2019-02-21T18:33:36.054Z,11.20
2019-02-21T18:36:52.788Z,11.20
2019-02-21T18:40:16.996Z,11.20
2019-02-21T18:43:28.011Z,11.20
2019-02-21T18:46:45.075Z,11.20
2019-02-21T18:50:01.588Z,11.20
2019-02-21T18:53:18.368Z,11.10
2019-02-21T18:56:34.912Z,11.10
2019-02-21T19:00:15.092Z,11.10
2019-02-21T19:03:12.001Z,11.10
2019-02-21T19:06:29.451Z,11.10
2019-02-21T19:09:46.523Z,11.10
2019-02-21T19:13:03.267Z,11.10
2019-02-21T19:16:20.096Z,11.10
2019-02-21T19:19:37.552Z,11.10
2019-02-21T19:22:54.432Z,11.00
2019-02-21T19:26:11.192Z,11.00
2019-02-21T19:29:27.898Z,11.00
2019-02-21T19:32:45.067Z,11.00
2019-02-21T19:36:01.605Z,11.00
2019-02-21T19:39:18.723Z,11.00
2019-02-21T19:42:35.517Z,10.90
2019-02-21T19:45:52.520Z,10.90
2019-02-21T19:49:09.076Z,10.90
2019-02-21T19:52:25.740Z,10.90
2019-02-21T19:55:42.512Z,10.90
2019-02-21T19:58:59.475Z,10.90
2019-02-21T20:02:16.172Z,10.80
2019-02-21T20:05:33.200Z,10.80
2019-02-21T20:08:49.836Z,10.80
2019-02-21T20:12:06.613Z,10.80
2019-02-21T20:15:23.180Z,10.70
2019-02-21T20:18:40.131Z,10.70
2019-02-21T20:21:57.322Z,10.70
2019-02-21T20:25:14.032Z,10.70
2019-02-21T20:28:30.683Z,10.70
2019-02-21T20:31:47.335Z,10.70
2019-02-21T20:35:04.505Z,10.70
2019-02-21T20:38:31.584Z,10.60
2019-02-21T20:41:39.788Z,10.60
2019-02-21T20:44:56.951Z,10.70
2019-02-21T20:48:13.983Z,10.60
2019-02-21T20:51:31.216Z,10.60
2019-02-21T20:54:48.846Z,10.60
2019-02-21T20:58:06.168Z,10.50
2019-02-21T21:01:23.481Z,10.50
2019-02-21T21:04:40.335Z,10.50
2019-02-21T21:07:56.891Z,10.40
2019-02-21T21:11:13.630Z,10.40
2019-02-21T21:14:30.079Z,10.30
2019-02-21T21:17:46.736Z,10.30
2019-02-21T21:21:03.461Z,10.40
2019-02-21T21:24:20.787Z,10.40
2019-02-21T21:27:37.488Z,10.40
2019-02-21T21:30:56.035Z,10.40
2019-02-21T21:34:12.484Z,10.40
2019-02-21T21:37:29.630Z,10.40
2019-02-21T21:40:45.091Z,10.40
2019-02-21T21:44:01.787Z,10.40
2019-02-21T21:47:18.452Z,10.40
2019-02-21T21:50:34.999Z,10.50
2019-02-21T21:53:51.555Z,10.50
2019-02-21T21:57:08.182Z,10.50
2019-02-21T22:00:24.914Z,10.50
2019-02-21T22:03:42.320Z,10.60
2019-02-21T22:06:59.192Z,10.60
2019-02-21T22:10:15.815Z,10.60
2019-02-21T22:13:32.457Z,10.70
2019-02-21T22:16:49.318Z,10.70
2019-02-21T22:20:06.504Z,10.70
2019-02-21T22:23:23.131Z,10.70
2019-02-21T22:26:39.968Z,10.80
2019-02-21T22:29:56.951Z,10.80
2019-02-21T22:33:13.796Z,10.80
2019-02-21T22:36:30.828Z,10.80
2019-02-21T22:39:47.816Z,10.90
2019-02-21T22:43:05.063Z,10.90
2019-02-21T22:46:21.532Z,10.90
2019-02-21T22:49:38.356Z,10.80
2019-02-21T22:52:55.220Z,10.80
2019-02-21T22:56:11.979Z,10.70
2019-02-21T22:59:28.457Z,10.70
2019-02-21T23:02:43.859Z,10.70
2019-02-21T23:06:01.039Z,10.60
2019-02-21T23:09:27.551Z,10.60
2019-02-21T23:13:00.128Z,10.60
2019-02-21T23:16:17.556Z,10.50
2019-02-21T23:19:34.411Z,10.50
2019-02-21T23:22:51.796Z,10.50
2019-02-21T23:26:09.116Z,10.50
2019-02-21T23:29:25.635Z,10.50
2019-02-21T23:32:42.771Z,10.50
2019-02-21T23:35:59.283Z,10.50
2019-02-21T23:39:16.368Z,10.50
2019-02-21T23:42:32.885Z,10.50
2019-02-21T23:45:50.125Z,10.50
2019-02-21T23:49:06.849Z,10.50
2019-02-21T23:52:23.872Z,10.50
2019-02-21T23:55:40.672Z,10.50
2019-02-21T23:58:57.424Z,10.50
